createdAt,value
2022-08-23T00:02:24.713Z,89.45
2022-08-23T00:05:13.573Z,89.20
2022-08-23T00:08:02.175Z,91.53
2022-08-23T00:10:51.419Z,91.03
2022-08-23T00:13:47.231Z,90.43
2022-08-23T00:16:36.803Z,90.00
2022-08-23T00:19:27.135Z,90.47
2022-08-23T00:22:16.008Z,91.55
2022-08-23T00:25:07.635Z,92.20
2022-08-23T00:27:56.168Z,94.05
2022-08-23T00:30:44.639Z,93.65
2022-08-23T00:33:33.402Z,92.18
2022-08-23T00:36:23.190Z,92.53
2022-08-23T00:39:12.021Z,89.25
2022-08-23T00:42:26.412Z,91.32
2022-08-23T00:45:36.744Z,95.82
2022-08-23T00:48:25.506Z,95.95
2022-08-23T00:51:17.836Z,95.60
2022-08-23T00:54:09.619Z,98.50
2022-08-23T00:57:01.244Z,100.25
2022-08-23T00:59:49.937Z,100.78
2022-08-23T01:02:38.617Z,102.50
2022-08-23T01:05:35.690Z,101.63
2022-08-23T01:08:27.476Z,101.57
2022-08-23T01:11:25.953Z,99.57
2022-08-23T01:14:18.985Z,100.95
2022-08-23T01:17:13.845Z,101.00
2022-08-23T01:20:05.795Z,99.88
2022-08-23T01:22:58.786Z,100.90
2022-08-23T01:25:48.724Z,100.70
2022-08-23T01:28:39.573Z,99.97
2022-08-23T01:31:28.185Z,97.85
2022-08-23T01:34:18.323Z,95.13
2022-08-23T01:37:09.399Z,93.70
2022-08-23T01:39:57.922Z,94.63
2022-08-23T01:42:49.620Z,94.68
2022-08-23T01:45:39.726Z,95.95
2022-08-23T01:48:29.979Z,97.22
2022-08-23T01:51:20.724Z,97.20
2022-08-23T01:54:09.291Z,99.22
2022-08-23T01:56:57.945Z,98.43
2022-08-23T01:59:48.584Z,98.22
2022-08-23T02:02:37.799Z,100.30
2022-08-23T02:05:26.889Z,100.05
2022-08-23T02:08:32.877Z,100.65
2022-08-23T02:11:24.794Z,102.05
2022-08-23T02:14:16.168Z,103.10
2022-08-23T02:17:16.425Z,105.32
2022-08-23T02:20:06.778Z,146.63
2022-08-23T02:22:55.172Z,108.95
2022-08-23T02:25:46.925Z,111.88
2022-08-23T02:28:35.706Z,107.18
2022-08-23T02:31:26.257Z,107.32
2022-08-23T02:34:20.011Z,107.40
2022-08-23T02:37:09.945Z,108.25
2022-08-23T02:39:58.362Z,108.60
2022-08-23T02:42:48.193Z,110.38
2022-08-23T02:45:38.444Z,108.45
2022-08-23T02:48:28.034Z,109.05
2022-08-23T02:51:25.155Z,114.78
2022-08-23T02:54:15.560Z,112.07
2022-08-23T02:57:04.324Z,112.97
2022-08-23T02:59:53.104Z,113.13
2022-08-23T03:02:42.599Z,113.35
2022-08-23T03:05:32.369Z,112.97
2022-08-23T03:08:23.790Z,115.88
2022-08-23T03:11:15.246Z,111.95
2022-08-23T03:14:07.086Z,112.32
2022-08-23T03:16:56.110Z,111.57
2022-08-23T03:19:48.285Z,108.40
2022-08-23T03:22:37.812Z,110.03
2022-08-23T03:25:28.092Z,108.57
2022-08-23T03:28:52.179Z,108.68
2022-08-23T03:31:42.719Z,109.43
2022-08-23T03:34:33.675Z,109.20
2022-08-23T03:37:22.486Z,108.15
2022-08-23T03:40:12.087Z,107.35
2022-08-23T03:43:02.454Z,105.60
2022-08-23T03:45:52.231Z,106.85
2022-08-23T03:48:41.561Z,104.97
2022-08-23T03:51:32.593Z,105.25
2022-08-23T03:54:22.752Z,104.72
2022-08-23T03:57:13.816Z,105.63
2022-08-23T04:00:07.842Z,106.88
2022-08-23T04:03:03.774Z,104.82
2022-08-23T04:05:55.449Z,105.70
2022-08-23T04:08:45.073Z,106.88
2022-08-23T04:11:33.669Z,107.13
2022-08-23T04:14:27.012Z,105.45
2022-08-23T04:17:17.931Z,105.00
2022-08-23T04:20:08.760Z,104.80
2022-08-23T04:23:04.073Z,103.75
2022-08-23T04:25:57.579Z,103.30
2022-08-23T04:28:47.417Z,101.40
2022-08-23T04:31:36.396Z,100.97
2022-08-23T04:34:29.865Z,102.05
2022-08-23T04:37:19.645Z,101.50
2022-08-23T04:40:26.338Z,101.80
2022-08-23T04:43:14.964Z,101.93
2022-08-23T04:46:03.424Z,104.20
2022-08-23T04:48:56.113Z,102.88
2022-08-23T04:51:53.594Z,103.22
2022-08-23T04:54:43.359Z,104.97
2022-08-23T04:57:50.440Z,102.43
2022-08-23T05:00:47.173Z,103.78
2022-08-23T05:03:41.404Z,105.05
2022-08-23T05:06:31.380Z,105.35
2022-08-23T05:09:21.383Z,105.05
2022-08-23T05:12:10.763Z,102.60
2022-08-23T05:14:59.268Z,102.35
2022-08-23T05:17:47.860Z,100.03
2022-08-23T05:20:38.681Z,98.57
2022-08-23T05:23:31.981Z,96.68
2022-08-23T05:26:34.725Z,96.07
2022-08-23T05:29:23.274Z,92.75
2022-08-23T05:32:12.618Z,90.10
2022-08-23T05:35:01.334Z,88.00
2022-08-23T05:37:50.161Z,84.50
2022-08-23T05:40:38.611Z,84.05
2022-08-23T05:43:33.468Z,83.05
2022-08-23T05:46:28.489Z,81.45
2022-08-23T05:49:44.843Z,81.15
2022-08-23T05:52:33.272Z,82.45
2022-08-23T05:55:23.595Z,82.72
2022-08-23T05:58:42.066Z,82.05
2022-08-23T06:01:31.737Z,81.18
2022-08-23T06:04:25.118Z,81.43
2022-08-23T06:07:14.255Z,78.70
2022-08-23T06:10:03.121Z,78.55
2022-08-23T06:12:52.490Z,76.53
2022-08-23T06:15:45.393Z,75.72
2022-08-23T06:18:33.929Z,72.18
2022-08-23T06:21:36.995Z,67.82
2022-08-23T06:24:27.067Z,65.00
2022-08-23T06:27:22.680Z,63.42
2022-08-23T06:30:13.321Z,58.40
2022-08-23T06:33:09.279Z,58.03
2022-08-23T06:36:33.475Z,56.05
2022-08-23T06:39:37.380Z,52.55
2022-08-23T06:42:44.588Z,52.13
2022-08-23T06:45:35.280Z,54.33
2022-08-23T06:48:26.169Z,53.53
2022-08-23T06:51:16.181Z,52.20
2022-08-23T06:54:40.550Z,54.67
2022-08-23T06:57:56.463Z,58.25
2022-08-23T07:01:28.556Z,58.00
2022-08-23T07:04:31.560Z,59.58
2022-08-23T07:07:39.769Z,62.10
2022-08-23T07:10:34.543Z,61.50
2022-08-23T07:13:22.939Z,61.38
2022-08-23T07:16:11.896Z,59.58
2022-08-23T07:19:00.717Z,56.85
2022-08-23T07:21:50.847Z,55.47
2022-08-23T07:24:40.600Z,52.22
2022-08-23T07:27:29.252Z,50.28
2022-08-23T07:30:26.572Z,49.22
2022-08-23T07:33:15.230Z,47.92
2022-08-23T07:36:26.379Z,48.90
2022-08-23T07:39:17.646Z,47.42
2022-08-23T07:42:23.095Z,46.53
2022-08-23T07:45:15.112Z,46.33
2022-08-23T07:48:07.284Z,46.40
2022-08-23T07:51:09.017Z,43.45
2022-08-23T07:53:59.060Z,41.47
2022-08-23T07:56:49.288Z,37.33
2022-08-23T07:59:56.938Z,37.13
2022-08-23T08:03:01.005Z,34.70
2022-08-23T08:06:00.935Z,33.53
2022-08-23T08:08:49.677Z,31.65
2022-08-23T08:11:38.570Z,31.50
2022-08-23T08:14:28.370Z,31.25
2022-08-23T08:17:20.530Z,31.27
2022-08-23T08:20:31.047Z,31.17
2022-08-23T08:23:45.472Z,31.58
2022-08-23T08:27:01.007Z,32.38
2022-08-23T08:29:50.793Z,30.13
2022-08-23T08:32:46.985Z,30.35
2022-08-23T08:35:35.976Z,30.52
2022-08-23T08:38:27.115Z,29.08
2022-08-23T08:41:21.988Z,28.45
2022-08-23T08:44:21.338Z,28.02
2022-08-23T08:47:18.310Z,27.40
2022-08-23T08:50:16.073Z,26.73
2022-08-23T08:53:11.202Z,26.42
2022-08-23T08:56:22.722Z,27.20
2022-08-23T08:59:24.334Z,27.23
2022-08-23T09:02:22.031Z,26.00
2022-08-23T09:05:27.009Z,24.10
2022-08-23T09:08:43.210Z,23.40
2022-08-23T09:11:52.757Z,23.88
2022-08-23T09:14:58.594Z,23.20
2022-08-23T09:17:52.564Z,22.15
2022-08-23T09:20:43.314Z,22.83
2022-08-23T09:23:38.329Z,22.98
2022-08-23T09:26:31.361Z,20.85
2022-08-23T09:29:22.935Z,21.05
2022-08-23T09:32:29.518Z,20.00
2022-08-23T09:35:22.279Z,20.70
2022-08-23T09:38:21.298Z,20.63
2022-08-23T09:41:20.504Z,20.85
2022-08-23T09:44:16.492Z,21.02
2022-08-23T09:47:13.029Z,21.35
2022-08-23T09:50:17.489Z,23.02
2022-08-23T09:53:10.562Z,21.48
2022-08-23T09:56:11.580Z,20.52
2022-08-23T09:59:01.063Z,20.90
2022-08-23T10:02:02.572Z,20.58
2022-08-23T10:05:01.225Z,20.60
2022-08-23T10:08:00.047Z,20.42
2022-08-23T10:10:53.356Z,20.45
2022-08-23T10:13:52.401Z,19.38
2022-08-23T10:16:53.573Z,20.08
2022-08-23T10:19:49.992Z,19.85
2022-08-23T10:22:45.852Z,18.50
2022-08-23T10:25:55.668Z,18.80
2022-08-23T10:29:09.832Z,18.20
2022-08-23T10:32:05.151Z,18.45
2022-08-23T10:35:16.602Z,19.63
2022-08-23T10:38:34.527Z,18.83
2022-08-23T10:41:44.583Z,19.42
2022-08-23T10:44:41.396Z,17.88
2022-08-23T10:47:38.774Z,19.73
2022-08-23T10:50:40.853Z,19.15
2022-08-23T10:53:37.765Z,17.73
2022-08-23T10:56:26.145Z,18.55
2022-08-23T10:59:24.117Z,29.90
2022-08-23T11:02:22.643Z,19.60
2022-08-23T11:05:25.605Z,17.55
2022-08-23T11:08:33.580Z,16.75
2022-08-23T11:11:43.297Z,17.08
2022-08-23T11:14:43.916Z,16.95
2022-08-23T11:17:38.694Z,17.65
2022-08-23T11:21:12.076Z,18.65
2022-08-23T11:24:31.661Z,17.23
2022-08-23T11:27:30.174Z,15.85
2022-08-23T11:30:51.073Z,15.63
2022-08-23T11:33:50.921Z,15.18
2022-08-23T11:36:40.262Z,15.25
2022-08-23T11:39:28.834Z,15.13
2022-08-23T11:42:20.551Z,14.75
2022-08-23T11:45:24.820Z,15.32
2022-08-23T11:48:26.336Z,15.10
2022-08-23T11:51:28.541Z,12.90
2022-08-23T11:54:42.114Z,13.15
2022-08-23T11:57:47.114Z,12.60
2022-08-23T12:00:57.532Z,12.15
2022-08-23T12:03:58.621Z,12.65
2022-08-23T12:06:51.509Z,12.30
2022-08-23T12:09:53.266Z,13.10
2022-08-23T12:12:47.019Z,12.85
2022-08-23T12:16:16.618Z,13.80
2022-08-23T12:19:13.637Z,14.02
2022-08-23T12:22:10.641Z,13.93
2022-08-23T12:25:02.948Z,13.65
2022-08-23T12:27:56.865Z,13.07
2022-08-23T12:30:57.499Z,12.30
2022-08-23T12:33:57.178Z,11.88
2022-08-23T12:36:57.074Z,12.93
2022-08-23T12:39:51.541Z,12.57
2022-08-23T12:42:41.294Z,13.02
2022-08-23T12:45:38.583Z,12.65
2022-08-23T12:48:29.578Z,12.73
2022-08-23T12:51:18.050Z,12.80
2022-08-23T12:54:16.896Z,13.15
2022-08-23T12:57:11.768Z,12.60
2022-08-23T13:00:17.224Z,12.65
2022-08-23T13:03:17.192Z,12.15
2022-08-23T13:06:08.674Z,12.15
2022-08-23T13:09:04.126Z,12.15
2022-08-23T13:11:54.653Z,11.43
2022-08-23T13:14:48.132Z,11.68
2022-08-23T13:17:39.977Z,11.25
2022-08-23T13:20:28.685Z,11.25
2022-08-23T13:23:29.498Z,11.13
2022-08-23T13:26:37.094Z,10.88
2022-08-23T13:29:26.844Z,11.27
2022-08-23T13:32:34.535Z,10.73
2022-08-23T13:35:34.425Z,10.70
2022-08-23T13:38:26.658Z,11.95
2022-08-23T13:41:31.570Z,10.80
2022-08-23T13:44:22.475Z,10.20
2022-08-23T13:47:24.215Z,11.15
2022-08-23T13:50:17.859Z,9.55
2022-08-23T13:53:15.718Z,10.23
2022-08-23T13:56:04.820Z,9.77
2022-08-23T13:58:56.496Z,9.35
2022-08-23T14:01:45.429Z,9.70
2022-08-23T14:04:35.688Z,9.23
2022-08-23T14:07:24.056Z,9.55
2022-08-23T14:10:12.545Z,10.52
2022-08-23T14:13:02.299Z,11.00
2022-08-23T14:15:56.065Z,10.60
2022-08-23T14:21:55.385Z,9.93
2022-08-23T14:24:45.420Z,10.40
2022-08-23T14:27:34.947Z,9.60
2022-08-23T14:30:29.381Z,10.77
2022-08-23T14:33:18.302Z,10.02
2022-08-23T14:36:08.140Z,11.02
2022-08-23T14:38:57.947Z,11.43
2022-08-23T14:41:50.374Z,10.50
2022-08-23T14:44:40.579Z,10.85
2022-08-23T14:47:29.535Z,11.98
2022-08-23T14:50:18.034Z,12.00
2022-08-23T14:53:06.967Z,11.80
2022-08-23T14:56:18.727Z,11.32
2022-08-23T14:59:05.267Z,12.88
2022-08-23T15:01:55.020Z,11.52
2022-08-23T15:04:43.507Z,11.23
2022-08-23T15:07:31.873Z,11.23
2022-08-23T15:13:35.471Z,10.95
2022-08-23T15:16:26.047Z,10.35
2022-08-23T15:19:15.059Z,11.50
2022-08-23T15:22:18.783Z,10.88
2022-08-23T15:25:10.787Z,10.55
2022-08-23T15:27:59.961Z,10.15
2022-08-23T15:30:51.681Z,10.50
2022-08-23T15:33:40.789Z,10.48
2022-08-23T15:36:29.750Z,11.23
2022-08-23T15:39:18.633Z,10.57
2022-08-23T15:42:07.343Z,9.85
2022-08-23T15:44:56.224Z,10.77
2022-08-23T15:47:51.505Z,11.45
2022-08-23T15:50:45.256Z,11.45
2022-08-23T15:53:33.721Z,11.20
2022-08-23T15:56:26.132Z,11.18
2022-08-23T15:59:17.222Z,11.60
2022-08-23T16:02:06.645Z,11.13
2022-08-23T16:04:56.642Z,11.32
2022-08-23T16:07:45.976Z,11.85
2022-08-23T16:10:34.996Z,11.18
2022-08-23T16:13:24.402Z,11.65
2022-08-23T16:16:21.008Z,12.48
2022-08-23T16:19:11.022Z,11.25
2022-08-23T16:22:01.216Z,11.25
2022-08-23T16:24:49.624Z,11.38
2022-08-23T16:27:38.421Z,12.38
2022-08-23T16:30:29.217Z,12.00
2022-08-23T16:33:17.692Z,12.15
2022-08-23T16:36:07.248Z,12.32
2022-08-23T16:38:57.244Z,12.38
2022-08-23T16:41:46.086Z,12.63
2022-08-23T16:44:35.498Z,13.05
2022-08-23T16:47:23.970Z,12.90
2022-08-23T16:50:13.794Z,13.80
2022-08-23T16:53:06.889Z,13.20
2022-08-23T16:55:57.139Z,13.38
2022-08-23T16:58:46.634Z,13.50
2022-08-23T17:01:45.608Z,13.52
2022-08-23T17:04:34.306Z,13.77
2022-08-23T17:07:23.083Z,14.57
2022-08-23T17:10:15.668Z,14.93
2022-08-23T17:13:06.613Z,15.15
2022-08-23T17:15:55.070Z,16.60
2022-08-23T17:18:43.548Z,16.05
2022-08-23T17:21:32.548Z,16.27
2022-08-23T17:24:21.076Z,16.58
2022-08-23T17:27:09.470Z,16.35
2022-08-23T17:30:12.783Z,17.77
2022-08-23T17:33:01.343Z,18.30
2022-08-23T17:35:49.876Z,18.50
2022-08-23T17:38:38.409Z,19.42
2022-08-23T17:41:28.492Z,21.83
2022-08-23T17:44:17.520Z,21.48
2022-08-23T17:47:13.875Z,23.88
2022-08-23T17:50:03.525Z,23.42
2022-08-23T17:52:52.050Z,24.55
2022-08-23T17:55:41.254Z,24.80
2022-08-23T17:58:29.771Z,25.27
2022-08-23T18:01:18.374Z,27.10
2022-08-23T18:04:08.348Z,26.55
2022-08-23T18:06:56.842Z,26.52
2022-08-23T18:09:48.307Z,27.80
2022-08-23T18:12:37.212Z,29.10
2022-08-23T18:15:25.870Z,29.35
2022-08-23T18:18:14.618Z,29.58
2022-08-23T18:21:07.708Z,30.65
2022-08-23T18:23:57.156Z,32.10
2022-08-23T18:27:03.932Z,34.30
2022-08-23T18:29:54.784Z,36.67
2022-08-23T18:32:43.349Z,37.60
2022-08-23T18:35:32.758Z,38.10
2022-08-23T18:38:22.632Z,39.55
2022-08-23T18:41:13.150Z,42.50
2022-08-23T18:44:05.702Z,44.08
2022-08-23T18:46:54.584Z,45.75
2022-08-23T18:49:43.060Z,49.08
2022-08-23T18:52:32.646Z,50.20
2022-08-23T18:55:22.586Z,50.83
2022-08-23T18:58:11.606Z,53.58
2022-08-23T19:01:02.389Z,53.17
2022-08-23T19:03:56.148Z,55.55
2022-08-23T19:06:45.462Z,57.63
2022-08-23T19:09:34.174Z,57.90
2022-08-23T19:12:24.896Z,58.80
2022-08-23T19:15:13.675Z,59.60
2022-08-23T19:18:03.348Z,58.05
2022-08-23T19:20:52.334Z,60.38
2022-08-23T19:23:40.743Z,58.50
2022-08-23T19:26:32.773Z,60.38
2022-08-23T19:29:22.761Z,60.42
2022-08-23T19:32:13.181Z,61.08
2022-08-23T19:35:06.134Z,62.72
2022-08-23T19:37:54.589Z,63.40
2022-08-23T19:40:43.675Z,65.03
2022-08-23T19:43:32.487Z,62.38
2022-08-23T19:46:22.810Z,62.85
2022-08-23T19:49:13.250Z,65.43
2022-08-23T19:52:02.135Z,64.93
2022-08-23T19:54:50.710Z,68.90
2022-08-23T19:57:39.171Z,68.22
2022-08-23T20:00:29.387Z,70.10
2022-08-23T20:03:19.190Z,70.30
2022-08-23T20:06:09.554Z,71.07
2022-08-23T20:08:59.339Z,73.85
2022-08-23T20:11:47.880Z,74.93
2022-08-23T20:14:36.612Z,74.75
2022-08-23T20:17:25.099Z,74.95
2022-08-23T20:20:15.158Z,76.45
2022-08-23T20:23:21.235Z,75.38
2022-08-23T20:26:09.794Z,75.55
2022-08-23T20:29:00.289Z,77.45
2022-08-23T20:31:51.467Z,78.43
2022-08-23T20:34:39.986Z,82.40
2022-08-23T20:37:32.396Z,81.75
2022-08-23T20:40:21.890Z,84.25
2022-08-23T20:43:10.711Z,85.30
2022-08-23T20:45:59.746Z,84.90
2022-08-23T20:48:48.244Z,86.00
2022-08-23T20:51:37.073Z,88.30
2022-08-23T20:54:26.902Z,86.88
2022-08-23T20:57:15.530Z,89.20
2022-08-23T21:00:05.372Z,89.55
2022-08-23T21:02:53.838Z,92.07
2022-08-23T21:05:42.347Z,91.68
2022-08-23T21:08:30.944Z,93.35
2022-08-23T21:11:21.706Z,95.50
2022-08-23T21:14:11.112Z,96.07
2022-08-23T21:16:59.506Z,99.18
2022-08-23T21:19:47.963Z,97.72
2022-08-23T21:22:36.538Z,97.78
2022-08-23T21:25:24.990Z,100.68
2022-08-23T21:28:14.839Z,102.72
2022-08-23T21:31:07.865Z,100.45
2022-08-23T21:33:56.735Z,101.78
2022-08-23T21:36:45.121Z,103.57
2022-08-23T21:39:33.694Z,103.28
2022-08-23T21:42:23.836Z,103.47
2022-08-23T21:45:13.864Z,105.15
2022-08-23T21:48:02.312Z,102.35
2022-08-23T21:50:51.361Z,102.28
2022-08-23T21:53:39.822Z,103.07
2022-08-23T21:56:28.357Z,101.80
2022-08-23T21:59:18.608Z,102.82
2022-08-23T22:02:08.456Z,100.05
2022-08-23T22:04:56.844Z,99.15
2022-08-23T22:07:45.392Z,98.68
2022-08-23T22:10:34.150Z,99.07
2022-08-23T22:13:23.160Z,98.78
2022-08-23T22:16:12.254Z,98.15
2022-08-23T22:19:02.466Z,97.20
2022-08-23T22:21:52.490Z,98.75
2022-08-23T22:24:41.828Z,99.30
2022-08-23T22:27:30.844Z,99.00
2022-08-23T22:30:19.852Z,98.85
2022-08-23T22:33:08.412Z,101.90
2022-08-23T22:36:03.510Z,103.07
2022-08-23T22:38:52.990Z,104.40
2022-08-23T22:41:41.886Z,105.35
2022-08-23T22:44:30.438Z,106.75
2022-08-23T22:47:19.055Z,105.55
2022-08-23T22:50:08.165Z,108.70
2022-08-23T22:52:58.103Z,107.05
2022-08-23T22:55:52.132Z,107.45
2022-08-23T22:58:41.549Z,108.07
2022-08-23T23:01:32.502Z,106.25
2022-08-23T23:04:26.527Z,106.25
2022-08-23T23:07:35.379Z,105.28
2022-08-23T23:10:25.471Z,106.97
2022-08-23T23:13:14.269Z,106.00
2022-08-23T23:16:04.877Z,105.82
2022-08-23T23:19:11.703Z,107.60
2022-08-23T23:22:00.977Z,107.78
2022-08-23T23:24:49.738Z,106.85
2022-08-23T23:27:39.859Z,106.40
2022-08-23T23:30:28.935Z,106.63
2022-08-23T23:33:17.647Z,105.63
2022-08-23T23:36:06.707Z,107.55
2022-08-23T23:38:56.602Z,108.78
2022-08-23T23:41:45.199Z,108.43
2022-08-23T23:44:35.236Z,108.78
2022-08-23T23:47:24.095Z,109.15
2022-08-23T23:50:14.007Z,109.93
2022-08-23T23:53:02.742Z,109.10
2022-08-23T23:56:00.711Z,110.13
2022-08-23T23:58:50.179Z,110.60
